Airport View

Enter ICAO identifier to see the current METAR for that AWOS.

KFNL for example

KJDN 251948Z AUTO 26015G24KT 28/M02 A2981

25 Jul 2014 20:39

Other Area AWOS: KGGW - KMLS - KOLF - KPO1

TAF KGGW 251741Z 2518/2618 26020G28KT P6SM SKC FM260600 29010KT P6SM FEW090 FM261500 29018KT P6SM FEW050